createdAt,value
2022-11-24T00:01:09.714Z,96016.06
2022-11-24T00:03:37.948Z,96015.72
2022-11-24T00:06:11.287Z,96006.53
2022-11-24T00:08:38.893Z,96009.84
2022-11-24T00:11:10.384Z,96009.38
2022-11-24T00:13:41.671Z,96007.72
2022-11-24T00:16:12.865Z,96007.06
2022-11-24T00:18:40.558Z,95998.38
2022-11-24T00:21:07.591Z,96003.44
2022-11-24T00:23:36.507Z,96003.41
2022-11-24T00:26:07.416Z,95998.25
2022-11-24T00:28:34.945Z,95999.22
2022-11-24T00:31:02.641Z,96000.34
2022-11-24T00:33:30.398Z,96002.78
2022-11-24T00:35:57.716Z,96002.84
2022-11-24T00:38:24.710Z,96004.53
2022-11-24T00:40:51.985Z,96008.31
2022-11-24T00:43:19.281Z,96001.56
2022-11-24T00:45:46.120Z,96003.94
2022-11-24T00:48:13.214Z,95999.09
2022-11-24T00:50:40.314Z,96008.59
2022-11-24T00:53:08.160Z,96010.44
2022-11-24T00:55:36.045Z,96003.44
2022-11-24T00:58:02.961Z,96010.44
2022-11-24T01:00:29.993Z,96019.97
2022-11-24T01:02:57.239Z,96014.97
2022-11-24T01:05:24.056Z,96005.44
2022-11-24T01:07:50.914Z,96011.19
2022-11-24T01:10:20.061Z,96008.69
2022-11-24T01:12:48.048Z,96005.47
2022-11-24T01:15:15.052Z,96004.13
2022-11-24T01:17:42.650Z,96003.59
2022-11-24T01:20:09.850Z,96002.56
2022-11-24T01:22:38.456Z,96010.63
2022-11-24T01:25:06.286Z,96008.59
2022-11-24T01:27:33.234Z,96010.59
2022-11-24T01:30:00.713Z,96012.19
2022-11-24T01:32:27.862Z,96020.13
2022-11-24T01:34:54.848Z,96026.16
2022-11-24T01:37:21.740Z,96015.41
2022-11-24T01:39:48.714Z,96016.13
2022-11-24T01:42:15.620Z,96010.41
2022-11-24T01:44:42.954Z,96012.34
2022-11-24T01:47:13.205Z,96015.97
2022-11-24T01:49:54.401Z,96014.88
2022-11-24T01:52:26.254Z,96006.63
2022-11-24T01:54:58.506Z,96013.56
2022-11-24T01:57:27.785Z,96018.38
2022-11-24T01:59:58.569Z,96017.53
2022-11-24T02:05:22.328Z,96024.16
2022-11-24T02:07:49.852Z,96014.19
2022-11-24T02:10:17.017Z,96015.91
2022-11-24T02:12:46.874Z,96014.28
2022-11-24T02:15:35.126Z,96016.66
2022-11-24T02:18:02.169Z,96015.56
2022-11-24T02:20:29.094Z,96017.03
2022-11-24T02:23:11.377Z,96017.94
2022-11-24T02:25:58.735Z,96009.25
2022-11-24T02:28:28.280Z,95999.19
2022-11-24T02:30:55.505Z,96002.56
2022-11-24T02:33:22.655Z,96008.22
2022-11-24T02:35:49.845Z,96001.28
2022-11-24T02:38:16.665Z,96000.75
2022-11-24T02:40:45.074Z,96002.44
2022-11-24T02:43:14.065Z,96009.88
2022-11-24T02:45:41.701Z,96009.09
2022-11-24T02:48:08.668Z,96008.75
2022-11-24T02:50:35.654Z,96014.66
2022-11-24T02:53:02.452Z,96007.41
2022-11-24T02:55:29.361Z,96004.13
2022-11-24T02:57:56.301Z,96001.94
2022-11-24T03:00:23.212Z,95996.75
2022-11-24T03:02:50.347Z,95993.78
2022-11-24T03:05:18.187Z,96006.44
2022-11-24T03:07:45.697Z,95993.25
2022-11-24T03:10:12.770Z,95994.56
2022-11-24T03:12:39.975Z,95998.59
2022-11-24T03:15:07.176Z,95997.47
2022-11-24T03:17:34.095Z,95998.94
2022-11-24T03:23:18.130Z,96002.41
2022-11-24T03:25:45.195Z,96004.97
2022-11-24T03:28:14.184Z,96008.19
2022-11-24T03:30:42.824Z,96012.25
2022-11-24T03:33:10.470Z,96017.34
2022-11-24T03:35:37.478Z,96012.97
2022-11-24T03:38:04.453Z,96010.28
2022-11-24T03:40:31.431Z,96017.03
2022-11-24T03:42:58.416Z,96018.81
2022-11-24T03:48:13.149Z,96018.56
2022-11-24T03:50:40.342Z,96018.56
2022-11-24T03:53:07.294Z,96018.72
2022-11-24T03:55:34.379Z,96029.75
2022-11-24T03:58:01.325Z,96023.34
2022-11-24T04:00:29.654Z,96028.09
2022-11-24T04:02:56.999Z,96030.44
2022-11-24T04:05:25.346Z,96027.25
2022-11-24T04:07:56.650Z,96037.50
2022-11-24T04:10:24.560Z,96030.03
2022-11-24T04:12:55.941Z,96038.44
2022-11-24T04:15:22.973Z,96037.28
2022-11-24T04:17:50.611Z,96037.88
2022-11-24T04:20:17.983Z,96038.19
2022-11-24T04:22:45.505Z,96041.09
2022-11-24T04:25:12.810Z,96044.03
2022-11-24T04:27:41.950Z,96042.53
2022-11-24T04:30:10.189Z,96046.34
2022-11-24T04:32:37.131Z,96054.00
2022-11-24T04:35:04.628Z,96057.84
2022-11-24T04:37:32.195Z,96062.25
2022-11-24T04:39:59.334Z,96062.09
2022-11-24T04:42:26.301Z,96063.72
2022-11-24T04:44:53.142Z,96060.28
2022-11-24T04:47:23.089Z,96059.50
2022-11-24T04:49:52.884Z,96061.16
2022-11-24T04:52:21.082Z,96064.13
2022-11-24T04:54:48.562Z,96072.16
2022-11-24T04:57:16.673Z,96073.75
2022-11-24T04:59:43.832Z,96077.09
2022-11-24T05:02:12.080Z,96069.81
2022-11-24T05:04:39.739Z,96064.72
2022-11-24T05:07:07.942Z,96078.81
2022-11-24T05:09:58.556Z,96077.66
2022-11-24T05:12:31.388Z,96079.44
2022-11-24T05:14:59.846Z,96079.88
2022-11-24T05:17:35.571Z,96087.13
2022-11-24T05:20:02.923Z,96087.47
2022-11-24T05:22:31.034Z,96086.50
2022-11-24T05:24:58.312Z,96087.13
2022-11-24T05:27:26.405Z,96089.63
2022-11-24T05:29:54.881Z,96092.81
2022-11-24T05:35:27.180Z,96089.19
2022-11-24T05:37:54.265Z,96086.63
2022-11-24T05:40:22.323Z,96098.75
2022-11-24T05:42:49.301Z,96086.03
2022-11-24T05:45:18.873Z,96098.47
2022-11-24T05:47:49.718Z,96092.38
2022-11-24T05:50:21.126Z,96101.94
2022-11-24T05:52:49.637Z,96105.13
2022-11-24T05:55:16.799Z,96100.88
2022-11-24T05:57:44.128Z,96113.34
2022-11-24T06:00:12.771Z,96105.84
2022-11-24T06:02:40.405Z,96117.97
2022-11-24T06:05:08.508Z,96113.56
2022-11-24T06:07:35.625Z,96115.06
2022-11-24T06:10:05.762Z,96116.25
2022-11-24T06:12:33.490Z,96118.50
2022-11-24T06:15:02.450Z,96115.03
2022-11-24T06:17:31.942Z,96108.28
2022-11-24T06:19:59.388Z,96110.06
2022-11-24T06:22:26.849Z,96113.13
2022-11-24T06:24:55.585Z,96123.53
2022-11-24T06:27:23.296Z,96122.22
2022-11-24T06:29:50.490Z,96116.31
2022-11-24T06:32:17.507Z,96117.56
2022-11-24T06:34:44.478Z,96127.88
2022-11-24T06:37:11.975Z,96118.72
2022-11-24T06:39:39.019Z,96126.56
2022-11-24T06:42:06.935Z,96127.56
2022-11-24T06:44:36.915Z,96132.69
2022-11-24T06:47:14.495Z,96128.66
2022-11-24T06:49:50.290Z,96134.38
2022-11-24T06:52:18.521Z,96136.53
2022-11-24T06:54:51.932Z,96146.25
2022-11-24T06:57:19.838Z,96134.72
2022-11-24T06:59:49.516Z,96147.63
2022-11-24T07:02:16.972Z,96152.25
2022-11-24T07:04:46.695Z,96142.59
2022-11-24T07:07:17.868Z,96152.06
2022-11-24T07:09:45.122Z,96154.22
2022-11-24T07:12:13.414Z,96155.09
2022-11-24T07:14:42.000Z,96157.28
2022-11-24T07:17:09.951Z,96158.03
2022-11-24T07:19:45.306Z,96155.59
2022-11-24T07:22:14.202Z,96157.41
2022-11-24T07:24:42.905Z,96160.22
2022-11-24T07:27:10.903Z,96165.25
2022-11-24T07:29:38.103Z,96160.53
2022-11-24T07:32:08.661Z,96158.97
2022-11-24T07:34:37.095Z,96161.13
2022-11-24T07:37:10.064Z,96154.47
2022-11-24T07:39:38.332Z,96157.31
2022-11-24T07:42:08.411Z,96162.13
2022-11-24T07:44:38.799Z,96154.94
2022-11-24T07:47:07.239Z,96155.00
2022-11-24T07:49:34.637Z,96158.53
2022-11-24T07:52:04.875Z,96159.25
2022-11-24T07:54:33.517Z,96157.75
2022-11-24T07:57:04.620Z,96154.97
2022-11-24T07:59:32.332Z,96148.84
2022-11-24T08:02:03.360Z,96156.78
2022-11-24T08:04:34.025Z,96149.91
2022-11-24T08:07:02.491Z,96150.44
2022-11-24T08:09:29.856Z,96151.19
2022-11-24T08:12:01.712Z,96150.88
2022-11-24T08:14:29.270Z,96152.47
2022-11-24T08:16:58.432Z,96140.78
2022-11-24T08:19:25.384Z,96153.78
2022-11-24T08:21:53.209Z,96150.25
2022-11-24T08:24:22.744Z,96149.69
2022-11-24T08:26:50.617Z,96146.44
2022-11-24T08:29:19.258Z,96141.97
2022-11-24T08:31:49.355Z,96148.81
2022-11-24T08:34:16.969Z,96143.84
2022-11-24T08:36:47.519Z,96152.69
2022-11-24T08:39:42.494Z,96151.00
2022-11-24T08:42:10.762Z,96141.25
2022-11-24T08:44:38.202Z,96142.78
2022-11-24T08:47:07.230Z,96146.03
2022-11-24T08:49:34.455Z,96134.13
2022-11-24T08:52:03.548Z,96143.72
2022-11-24T08:54:35.388Z,96146.53
2022-11-24T08:57:02.866Z,96146.63
2022-11-24T08:59:31.132Z,96154.88
2022-11-24T09:01:58.850Z,96155.03
2022-11-24T09:04:25.963Z,96151.06
2022-11-24T09:06:53.720Z,96150.41
2022-11-24T09:09:21.087Z,96144.09
2022-11-24T09:11:50.763Z,96148.94
2022-11-24T09:14:18.608Z,96149.53
2022-11-24T09:16:45.648Z,96148.47
2022-11-24T09:19:12.679Z,96143.81
2022-11-24T09:21:40.741Z,96142.31
2022-11-24T09:24:09.064Z,96148.13
2022-11-24T09:26:44.548Z,96154.72
2022-11-24T09:29:14.927Z,96152.28
2022-11-24T09:31:43.650Z,96147.59
2022-11-24T09:34:12.790Z,96142.31
2022-11-24T09:36:39.729Z,96142.56
2022-11-24T09:39:06.835Z,96143.47
2022-11-24T09:41:52.177Z,96140.38
2022-11-24T09:44:38.731Z,96125.94
2022-11-24T09:47:18.311Z,96128.28
2022-11-24T09:49:56.596Z,96120.41
2022-11-24T09:52:32.993Z,96121.03
2022-11-24T09:55:01.995Z,96123.50
2022-11-24T09:57:37.701Z,96120.94
2022-11-24T10:00:12.049Z,96111.88
2022-11-24T10:02:42.273Z,96122.19
2022-11-24T10:05:13.547Z,96116.78
2022-11-24T10:08:03.930Z,96121.75
2022-11-24T10:10:50.544Z,96115.50
2022-11-24T10:13:33.677Z,96116.28
2022-11-24T10:16:12.218Z,96116.31
2022-11-24T10:18:55.692Z,96114.28
2022-11-24T10:21:55.915Z,96109.13
2022-11-24T10:24:26.789Z,96112.63
2022-11-24T10:27:04.200Z,96114.88
2022-11-24T10:29:38.352Z,96119.25
2022-11-24T10:35:00.896Z,96121.75
2022-11-24T10:37:35.954Z,96122.59
2022-11-24T10:40:06.870Z,96119.88
2022-11-24T10:42:39.353Z,96124.47
2022-11-24T10:45:18.378Z,96126.34
2022-11-24T10:48:20.276Z,96119.72
2022-11-24T10:50:57.526Z,96124.44
2022-11-24T10:53:31.781Z,96127.88
2022-11-24T10:56:03.932Z,96124.47
2022-11-24T10:59:10.726Z,96124.44
2022-11-24T11:01:39.198Z,96132.97
2022-11-24T11:04:18.743Z,96130.81
2022-11-24T11:06:46.777Z,96132.25
2022-11-24T11:09:16.370Z,96130.47
2022-11-24T11:11:45.346Z,96133.59
2022-11-24T11:14:13.208Z,96127.97
2022-11-24T11:16:54.767Z,96130.59
2022-11-24T11:19:54.204Z,96137.69
2022-11-24T11:22:31.448Z,96136.06
2022-11-24T11:25:19.807Z,96136.28
2022-11-24T11:27:49.009Z,96140.81
2022-11-24T11:36:03.953Z,96152.63
2022-11-24T11:38:36.009Z,96156.16
2022-11-24T11:41:06.225Z,96164.72
2022-11-24T11:43:40.327Z,96167.00
2022-11-24T11:46:12.525Z,96169.50
2022-11-24T11:48:44.356Z,96172.41
2022-11-24T11:51:34.200Z,96168.78
2022-11-24T11:54:01.763Z,96172.50
2022-11-24T11:56:31.851Z,96171.59
2022-11-24T11:59:08.054Z,96181.88
2022-11-24T12:01:54.426Z,96177.31
2022-11-24T12:04:28.849Z,96176.16
2022-11-24T12:07:15.785Z,96171.19
2022-11-24T12:09:53.519Z,96174.38
2022-11-24T12:12:25.388Z,96184.28
2022-11-24T12:15:07.363Z,96187.38
2022-11-24T12:17:54.790Z,96187.38
2022-11-24T12:20:37.030Z,96178.34
2022-11-24T12:23:15.920Z,96188.53
2022-11-24T12:25:46.641Z,96185.31
2022-11-24T12:28:29.077Z,96190.28
2022-11-24T12:30:59.427Z,96203.38
2022-11-24T12:33:36.038Z,96199.22
2022-11-24T12:36:33.910Z,96193.81
2022-11-24T12:39:03.974Z,96193.53
2022-11-24T12:41:49.573Z,96197.16
2022-11-24T12:44:39.012Z,96200.59
2022-11-24T12:47:09.439Z,96200.34
2022-11-24T12:49:47.721Z,96197.75
2022-11-24T12:52:37.294Z,96196.19
2022-11-24T12:55:13.597Z,96199.63
2022-11-24T12:58:09.378Z,96195.88
2022-11-24T13:00:47.259Z,96206.69
2022-11-24T13:03:33.482Z,96203.44
2022-11-24T13:06:22.051Z,96206.50
2022-11-24T13:08:51.020Z,96204.00
2022-11-24T13:11:29.351Z,96209.25
2022-11-24T13:14:20.002Z,96210.00
2022-11-24T13:17:21.154Z,96213.72
2022-11-24T13:19:38.028Z,96220.19
2022-11-24T13:22:16.870Z,96225.19
2022-11-24T13:24:45.915Z,96220.19
2022-11-24T13:27:16.299Z,96218.31
2022-11-24T13:29:44.796Z,96216.72
2022-11-24T13:32:18.042Z,96215.97
2022-11-24T13:34:49.944Z,96217.81
2022-11-24T13:37:34.649Z,96201.31
2022-11-24T13:40:24.220Z,96207.75
2022-11-24T13:43:04.608Z,96203.75
2022-11-24T13:45:50.943Z,96203.47
2022-11-24T13:48:20.973Z,96196.91
2022-11-24T13:50:51.950Z,96201.16
2022-11-24T13:53:29.222Z,96201.31
2022-11-24T13:55:58.538Z,96202.00
2022-11-24T13:59:09.428Z,96218.00
2022-11-24T14:01:41.127Z,96216.84
2022-11-24T14:04:33.062Z,96220.84
2022-11-24T14:07:07.877Z,96217.91
2022-11-24T14:10:04.387Z,96220.38
2022-11-24T14:12:34.647Z,96226.41
2022-11-24T14:15:23.773Z,96227.63
2022-11-24T14:17:55.032Z,96222.69
2022-11-24T14:20:28.308Z,96227.13
2022-11-24T14:22:56.238Z,96231.41
2022-11-24T14:25:28.056Z,96234.06
2022-11-24T14:27:56.787Z,96236.13
2022-11-24T14:30:24.974Z,96239.25
2022-11-24T14:32:59.971Z,96243.25
2022-11-24T14:35:37.535Z,96246.88
2022-11-24T14:38:08.700Z,96236.59
2022-11-24T14:40:55.759Z,96236.22
2022-11-24T14:46:16.250Z,96242.06
2022-11-24T14:52:00.520Z,96256.34
2022-11-24T14:54:28.272Z,96267.19
2022-11-24T14:57:01.783Z,96266.47
2022-11-24T14:59:30.839Z,96269.44
2022-11-24T15:02:03.299Z,96276.00
2022-11-24T15:05:01.756Z,96285.56
2022-11-24T15:07:27.336Z,96287.41
2022-11-24T15:09:58.243Z,96284.59
2022-11-24T15:12:45.844Z,96287.13
2022-11-24T15:15:15.949Z,96282.78
2022-11-24T15:17:47.559Z,96293.41
2022-11-24T15:20:23.560Z,96297.13
2022-11-24T15:22:52.903Z,96282.78
2022-11-24T15:25:45.149Z,96297.97
2022-11-24T15:28:15.067Z,96282.22
2022-11-24T15:30:43.917Z,96281.97
2022-11-24T15:33:17.047Z,96288.88
2022-11-24T15:35:47.858Z,96291.75
2022-11-24T15:38:16.189Z,96288.94
2022-11-24T15:40:45.142Z,96289.41
2022-11-24T15:43:29.653Z,96289.50
2022-11-24T15:46:00.020Z,96295.16
2022-11-24T15:48:27.462Z,96297.78
2022-11-24T15:50:54.929Z,96300.97
2022-11-24T15:53:34.398Z,96301.00
2022-11-24T15:56:02.943Z,96295.19
2022-11-24T15:58:30.646Z,96299.06
2022-11-24T16:01:07.464Z,96301.81
2022-11-24T16:03:49.918Z,96299.41
2022-11-24T16:06:24.049Z,96307.13
2022-11-24T16:08:54.402Z,96311.25
2022-11-24T16:11:22.012Z,96303.09
2022-11-24T16:13:52.876Z,96309.66
2022-11-24T16:16:23.088Z,96316.16
2022-11-24T16:18:51.191Z,96313.91
2022-11-24T16:21:18.783Z,96319.13
2022-11-24T16:23:46.654Z,96324.53
2022-11-24T16:26:15.117Z,96335.91
2022-11-24T16:28:45.316Z,96344.97
2022-11-24T16:31:16.433Z,96342.63
2022-11-24T16:33:44.945Z,96347.13
2022-11-24T16:36:13.265Z,96358.97
2022-11-24T16:38:41.316Z,96363.94
2022-11-24T16:41:09.859Z,96362.78
2022-11-24T16:43:59.129Z,96366.56
2022-11-24T16:46:38.705Z,96371.31
2022-11-24T16:49:09.370Z,96368.16
2022-11-24T16:51:37.981Z,96374.34
2022-11-24T16:54:06.224Z,96369.66
2022-11-24T16:56:34.661Z,96377.34
2022-11-24T16:59:18.828Z,96365.66
2022-11-24T17:06:27.083Z,96382.84
2022-11-24T17:08:56.826Z,96380.28
2022-11-24T17:11:26.809Z,96375.25
2022-11-24T17:14:00.824Z,96380.19
2022-11-24T17:16:28.527Z,96376.84
2022-11-24T17:18:57.191Z,96375.25
2022-11-24T17:21:25.977Z,96374.81
2022-11-24T17:23:54.241Z,96382.25
2022-11-24T17:26:44.685Z,96381.06
2022-11-24T17:37:27.606Z,96394.81
2022-11-24T17:40:26.317Z,96405.66
2022-11-24T17:45:29.382Z,96410.38
2022-11-24T17:48:11.703Z,96409.56
2022-11-24T17:51:26.880Z,96406.31
2022-11-24T17:53:56.813Z,96412.38
2022-11-24T17:56:27.555Z,96396.91
2022-11-24T17:58:59.672Z,96390.69
2022-11-24T18:01:35.828Z,96376.44
2022-11-24T18:04:11.007Z,96406.66
2022-11-24T18:06:48.447Z,96391.75
2022-11-24T18:09:16.741Z,96407.25
2022-11-24T18:11:46.131Z,96409.47
2022-11-24T18:18:19.347Z,96394.88
2022-11-24T18:21:06.981Z,96389.78
2022-11-24T18:23:37.504Z,96382.34
2022-11-24T18:26:06.245Z,96393.88
2022-11-24T18:28:36.242Z,96386.38
2022-11-24T18:31:09.901Z,96404.88
2022-11-24T18:33:39.411Z,96363.44
2022-11-24T18:36:08.351Z,96415.75
2022-11-24T18:39:07.272Z,96419.19
2022-11-24T18:41:40.597Z,96416.38
2022-11-24T18:44:21.470Z,96414.78
2022-11-24T18:46:54.372Z,96405.50
2022-11-24T18:56:20.207Z,96421.59
2022-11-24T18:58:54.846Z,96431.59
2022-11-24T19:04:15.361Z,96425.03
2022-11-24T19:06:45.499Z,96441.72
2022-11-24T19:09:19.435Z,96442.38
2022-11-24T19:11:51.858Z,96427.19
2022-11-24T19:14:21.829Z,96434.91
2022-11-24T19:17:36.484Z,96438.66
2022-11-24T19:19:48.037Z,96427.09
2022-11-24T19:22:16.448Z,96404.25
2022-11-24T19:24:48.016Z,96423.88
2022-11-24T19:27:24.359Z,96423.50
2022-11-24T19:29:55.649Z,96425.00
2022-11-24T19:32:26.552Z,96388.84
2022-11-24T19:34:54.753Z,96421.31
2022-11-24T19:37:28.774Z,96428.31
2022-11-24T19:40:20.239Z,96419.66
2022-11-24T19:42:48.434Z,96420.69
2022-11-24T19:45:19.897Z,96419.97
2022-11-24T19:47:52.354Z,96410.91
2022-11-24T19:50:21.910Z,96429.13
2022-11-24T19:52:49.382Z,96431.44
2022-11-24T19:58:42.814Z,96437.66
2022-11-24T20:01:20.592Z,96452.22
2022-11-24T20:07:19.321Z,96323.88
2022-11-24T20:09:47.261Z,96443.25
2022-11-24T20:12:15.298Z,96430.97
2022-11-24T20:14:44.987Z,96445.25
2022-11-24T20:17:14.280Z,96440.09
2022-11-24T20:19:41.409Z,96429.22
2022-11-24T20:22:08.655Z,96425.34
2022-11-24T20:24:37.913Z,96437.47
2022-11-24T20:27:04.890Z,96440.69
2022-11-24T20:29:34.724Z,96449.63
2022-11-24T20:32:01.750Z,96430.03
2022-11-24T20:39:38.912Z,96429.81
2022-11-24T20:42:06.430Z,96426.78
2022-11-24T20:44:33.565Z,96428.44
2022-11-24T20:47:05.078Z,96424.41
2022-11-24T20:49:41.347Z,96429.41
2022-11-24T20:52:16.087Z,96437.63
2022-11-24T20:54:47.085Z,96446.03
2022-11-24T20:57:27.826Z,96447.09
2022-11-24T21:00:07.805Z,96453.09
2022-11-24T21:02:35.948Z,96451.75
2022-11-24T21:05:19.312Z,96449.28
2022-11-24T21:08:04.749Z,96451.06
2022-11-24T21:10:35.803Z,96450.59
2022-11-24T21:13:05.687Z,96462.06
2022-11-24T21:18:52.868Z,96465.97
2022-11-24T21:25:15.482Z,96471.69
2022-11-24T21:27:44.149Z,96476.13
2022-11-24T21:30:12.172Z,96473.78
2022-11-24T21:33:07.186Z,96485.66
2022-11-24T21:35:45.582Z,96478.50
2022-11-24T21:38:19.270Z,96475.63
2022-11-24T21:40:59.084Z,96477.13
2022-11-24T21:43:38.994Z,96480.94
2022-11-24T21:46:10.917Z,96486.56
2022-11-24T21:48:44.735Z,96492.84
2022-11-24T21:51:29.577Z,96489.63
2022-11-24T22:02:18.967Z,96490.50
2022-11-24T22:09:18.718Z,96483.38
2022-11-24T22:12:21.344Z,96475.34
2022-11-24T22:15:09.322Z,96481.34
2022-11-24T22:17:36.713Z,96507.47
2022-11-24T22:20:03.884Z,96485.06
2022-11-24T22:22:30.835Z,96491.16
2022-11-24T22:24:58.568Z,96497.31
2022-11-24T22:27:26.109Z,96485.75
2022-11-24T22:29:54.346Z,96485.22
2022-11-24T22:32:23.025Z,96485.03
2022-11-24T22:34:51.574Z,96480.63
2022-11-24T22:37:21.519Z,96477.38
2022-11-24T22:39:48.813Z,96471.81
2022-11-24T22:42:17.289Z,96476.53
2022-11-24T22:44:47.370Z,96472.91
2022-11-24T22:47:19.356Z,96499.78
2022-11-24T22:49:46.572Z,96468.03
2022-11-24T22:52:14.153Z,96472.75
2022-11-24T22:54:44.483Z,96476.69
2022-11-24T22:57:13.211Z,96481.03
2022-11-24T22:59:42.353Z,96467.69
2022-11-24T23:02:10.082Z,96471.38
2022-11-24T23:04:37.490Z,96477.59
2022-11-24T23:07:04.579Z,96466.91
2022-11-24T23:09:31.453Z,96456.72
2022-11-24T23:11:58.573Z,96454.34
2022-11-24T23:14:29.113Z,96463.72
2022-11-24T23:16:56.409Z,96465.75
2022-11-24T23:19:25.689Z,96472.72
2022-11-24T23:21:52.593Z,96474.84
2022-11-24T23:24:19.542Z,96474.41
2022-11-24T23:26:49.104Z,96476.53
2022-11-24T23:29:21.663Z,96472.66
2022-11-24T23:31:54.678Z,96476.25
2022-11-24T23:34:22.679Z,96486.88
2022-11-24T23:36:54.075Z,96484.88
2022-11-24T23:39:22.071Z,96476.25
2022-11-24T23:41:51.805Z,96480.13
2022-11-24T23:44:26.473Z,96478.34
2022-11-24T23:47:21.672Z,96486.41
